• Join FlightAware (Why Join?)
  • Login
  • US Flag 
08:33AM EDT


 

Airport Tracker/Info


-or-


 

Live Flight TrackerFlight Track Log ✈ EJA831 ✈ 11-Jun-2013 ✈ KPKB - KTEB

Flight Track Log - Related Links

Times and Time Zones

All times are in EDT time to prevent confusion due to time zone crossing. See the EJA831 flight status page for this flight to view local times or setup timezone preferences in your user account.

Time Position Orientation Groundspeed Altitude Reporting Facility
EDT Latitude Longitude Course Direction KTS MPH feet Rate Location/Type
03:50PM 39.3086 -81.4306 111° Southeast 202 232 3,300  Level Indianapolis Center
03:51PM 39.2775 -81.3286 111° Southeast 250 288 7,100 3,120 Climbing Indianapolis Center
03:52PM 39.2489 -81.2247 110° East 292 336 9,800 2,220 Climbing Indianapolis Center
03:53PM 39.2156 -81.1092 110° East 336 387 11,700 1,680 Climbing Indianapolis Center
03:54PM 39.1797 -80.9847 110° East 366 421 13,300 1,500 Climbing Indianapolis Center
03:55PM 39.1417 -80.8539 111° Southeast 386 444 14,900 1,500 Climbing Indianapolis Center
03:56PM 39.1028 -80.7219 111° Southeast 391 450 16,400 1,440 Climbing Indianapolis Center
03:57PM 39.0617 -80.5856 111° Southeast 405 466 17,900 1,500 Climbing Indianapolis Center
03:59PM 39.0117 -80.4194 111° Southeast 414 476 19,500 1,380 Climbing Indianapolis Center
04:00PM 38.9694 -80.2794 111° Southeast 418 481 20,800 1,200 Climbing Indianapolis Center
04:01PM 38.9269 -80.1361 111° Southeast 426 490 22,100 1,320 Climbing Indianapolis Center
04:02PM 38.8642 -79.9842 118° Southeast 434 499 23,600 1,200 Climbing Indianapolis Center
04:03PM 38.8100 -79.8644 120° Southeast 434 499 24,700 960 Climbing Indianapolis Center
04:04PM 38.7581 -79.7528 121° Southeast 434 499 25,500 840 Climbing Washington Center
04:05PM 38.6958 -79.6164 120° Southeast 439 505 26,300 900 Climbing Washington Center
04:06PM 38.6278 -79.4664 120° Southeast 444 511 27,400 900 Climbing Washington Center
04:07PM 38.5636 -79.3250 120° Southeast 449 517 28,100 660 Climbing Washington Center
04:08PM 38.4989 -79.1864 121° Southeast 449 517 28,800 660 Climbing Washington Center
04:09PM 38.4828 -79.0317 98° East 441 507 29,500 600 Climbing Washington Center
04:10PM 38.4850 -78.8781 89° East 426 490 30,100 600 Climbing Washington Center
04:11PM 38.4783 -78.7344 93° East 437 503 30,800 660 Climbing Washington Center
04:12PM 38.4697 -78.5831 94° East 437 503 31,500 660 Climbing Washington Center
04:13PM 38.4631 -78.4289 93° East 437 503 32,200 660 Climbing Washington Center
04:14PM 38.4539 -78.2747 94° East 437 503 32,900 360 Climbing Washington Center
04:15PM 38.4469 -78.1181 93° East 437 503 33,000  Climbing Washington Center
04:16PM 38.4378 -77.9614 94° East 443 510 33,000  Level Washington Center
04:17PM 38.4283 -77.7889 94° East 443 510 33,000  Level Washington Center
04:18PM 38.4186 -77.6347 95° East 443 510 33,000  Level Washington Center
04:19PM 38.4108 -77.4783 94° East 443 510 33,000  Level Washington Center
04:20PM 38.4297 -77.3250 81° East 428 493 33,000  Level Washington Center
04:21PM 38.4858 -77.1964 61° Northeast 413 475 33,000  Level Washington Center
04:22PM 38.5478 -77.0678 58° Northeast 413 475 33,000 -600 Level Washington Center
04:23PM 38.6097 -76.9439 57° Northeast 413 475 31,900 -1,260 Descending Washington Center
04:24PM 38.6694 -76.8175 59° Northeast 413 475 30,600 -1,320 Descending Washington Center
04:25PM 38.7350 -76.7094 52° Northeast 406 467 29,300 -1,320 Descending Washington Center
04:26PM 38.8153 -76.6147 43° Northeast 389 448 28,000 -1,320 Descending Washington Center
04:27PM 38.8972 -76.5225 41° Northeast 377 434 26,800 -1,260 Descending Washington Center
04:28PM 38.9814 -76.4247 42° Northeast 392 451 25,500 -1,320 Descending Washington Center
04:29PM 39.0675 -76.3242 42° Northeast 397 457 24,200 -780 Descending Washington Center
04:30PM 39.1492 -76.2286 42° Northeast 402 463 24,000 -120 Descending Washington Center
04:31PM 39.2372 -76.1303 41° Northeast 402 463 24,000 -1,020 Level Washington Center
04:33PM 39.4667 -75.9167 36° Northeast 366 421 20,400 -1,560 Descending Philadelphia TRACON
04:34PM 39.5500 -75.8167 43° Northeast 372 428 18,300 -1,860 Descending Philadelphia TRACON
04:35PM 39.6333 -75.7500 32° Northeast 336 387 16,500 -1,800 Descending Philadelphia TRACON
04:36PM 39.7167 -75.6833 32° Northeast 341 392 14,700 -1,800 Descending Philadelphia TRACON
04:37PM 39.7833 -75.6000 44° Northeast 355 409 13,000 -900 Descending Philadelphia TRACON
04:38PM 39.8667 -75.5333 32° Northeast 348 400 13,000  Level Philadelphia TRACON
04:39PM 39.9500 -75.4500 37° Northeast 346 398 13,000  Level Philadelphia TRACON
04:40PM 40.0333 -75.3833 31° Northeast 347 399 13,000  Level Philadelphia TRACON
04:41PM 40.1167 -75.3167 31° Northeast 349 402 13,000 -480 Level Philadelphia TRACON
04:42PM 40.2000 -75.2333 37° Northeast 346 398 12,100 -1,380 Descending Philadelphia TRACON
04:44PM 40.3000 -75.0500 54° Northeast 300 345 8,800 -1,620 Descending New York TRACON
04:46PM 40.3667 -74.9667 44° Northeast 299 344 7,000 -1,200 Descending New York TRACON
04:47PM 40.4333 -74.9167 30° Northeast 287 330 6,300 -1,020 Descending New York TRACON
04:48PM 40.5000 -74.8500 37° Northeast 287 330 5,000 -1,200 Descending New York TRACON
04:49PM 40.5500 -74.7833 45° Northeast 280 322 3,900 -600 Descending New York TRACON
04:50PM 40.6167 -74.7000 43° Northeast 286 329 3,900 -360 Level New York TRACON
04:51PM 40.6833 -74.6500 30° Northeast 275 316 3,200 -720 Descending New York TRACON
04:52PM 40.7333 -74.5833 45° Northeast 277 319 2,500 -180 Descending New York TRACON
04:53PM 40.8000 -74.5167 37° Northeast 282 325 2,900 180 Climbing New York TRACON
04:54PM 40.8500 -74.4333 52° Northeast 286 329 2,900  Level New York TRACON
04:55PM 40.8833 -74.3667 57° Northeast 227 261 2,900  Level New York TRACON
04:56PM 40.9167 -74.3167 49° Northeast 215 247 2,900  Level New York TRACON
04:57PM 40.9500 -74.2500 56° Northeast 225 259 2,900  Level New York TRACON
04:58PM 41.0000 -74.1833 45° Northeast 223 257 2,900  Level New York TRACON
04:59PM 41.0333 -74.1333 49° Northeast 207 238 2,900 -540 Level New York TRACON
05:00PM 41.0333 -74.0667 90° East 217 250 1,900 -1,020 Descending New York TRACON